createdAt,value
2022-11-24T13:38:44.677Z,11.13
2022-11-24T13:39:50.114Z,11.20
2022-11-24T13:40:59.810Z,11.31
2022-11-24T13:41:44.825Z,11.39
2022-11-24T13:42:44.927Z,11.47
2022-11-24T13:43:44.860Z,11.50
2022-11-24T13:44:45.916Z,11.50
2022-11-24T13:45:44.985Z,11.62
2022-11-24T13:46:45.043Z,11.62
2022-11-24T13:47:46.940Z,11.61
2022-11-24T13:48:45.123Z,11.59
2022-11-24T13:49:45.166Z,11.57
2022-11-24T13:50:45.204Z,11.54
2022-11-24T13:51:45.226Z,11.50
2022-11-24T13:52:45.280Z,11.52
2022-11-24T13:53:46.429Z,11.50
2022-11-24T13:54:45.424Z,11.43
2022-11-24T13:55:45.852Z,11.32
2022-11-24T13:56:51.226Z,11.29
2022-11-24T13:57:45.508Z,11.20
2022-11-24T13:58:45.598Z,11.16
2022-11-24T13:59:45.614Z,11.09
2022-11-24T14:00:45.655Z,11.09
2022-11-24T14:01:45.797Z,11.09
2022-11-24T14:13:24.023Z,11.11
2022-11-24T14:13:55.900Z,11.10
2022-11-24T14:14:56.031Z,10.99
2022-11-24T14:15:55.959Z,10.95
2022-11-24T14:16:57.135Z,10.96
2022-11-24T14:17:58.690Z,10.91
2022-11-24T14:18:56.059Z,10.91
2022-11-24T14:19:57.026Z,10.92
2022-11-24T14:20:56.166Z,10.95
2022-11-24T14:21:57.028Z,10.89
2022-11-24T14:22:56.595Z,10.86
2022-11-24T14:23:56.377Z,10.78
2022-11-24T14:24:56.332Z,10.76
2022-11-24T14:25:56.371Z,10.78
2022-11-24T14:26:56.475Z,10.71
2022-11-24T14:27:57.049Z,10.83
2022-11-24T14:28:58.620Z,10.68
2022-11-24T14:29:56.591Z,10.73
2022-11-24T14:30:56.646Z,10.76
2022-11-24T14:31:56.703Z,10.73
2022-11-24T14:32:56.713Z,10.71
2022-11-24T14:33:56.764Z,10.68
2022-11-24T14:35:07.595Z,10.78
2022-11-24T14:35:57.600Z,10.65
2022-11-24T14:36:56.892Z,10.66
2022-11-24T14:37:56.922Z,10.70
2022-11-24T14:38:56.982Z,10.65
2022-11-24T14:39:57.526Z,10.73
2022-11-24T14:40:57.104Z,10.71
2022-11-24T14:41:57.116Z,10.76
2022-11-24T14:42:57.185Z,10.77
2022-11-24T14:43:57.248Z,10.70
2022-11-24T14:44:57.250Z,10.74
2022-11-24T14:45:57.302Z,10.66
2022-11-24T14:46:57.649Z,10.71
2022-11-24T14:47:57.397Z,10.68
2022-11-24T14:48:57.440Z,10.68
2022-11-24T14:49:57.579Z,10.68
2022-11-24T14:50:57.530Z,10.60
2022-11-24T14:51:57.599Z,10.60
2022-11-24T14:52:57.618Z,10.62
2022-11-24T14:53:57.693Z,10.59
2022-11-24T14:55:07.516Z,10.62
2022-11-24T14:55:57.797Z,10.56
2022-11-24T14:56:57.805Z,10.37
2022-11-24T14:57:57.877Z,10.28
2022-11-24T14:58:57.975Z,10.22
2022-11-24T14:59:57.936Z,10.07
2022-11-24T15:00:58.098Z,10.00
2022-11-24T15:01:58.086Z,9.96
2022-11-24T15:02:58.072Z,9.94
2022-11-24T15:03:58.179Z,9.86
2022-11-24T15:05:03.219Z,9.81
2022-11-24T15:05:58.209Z,9.66
2022-11-24T15:06:59.025Z,9.63
2022-11-24T15:08:00.213Z,9.56
2022-11-24T15:08:58.363Z,9.52
2022-11-24T15:09:59.033Z,9.46
2022-11-24T15:10:58.442Z,9.50
2022-11-24T15:12:13.033Z,9.45
2022-11-24T15:12:59.539Z,9.50
2022-11-24T15:13:58.645Z,9.49
2022-11-24T15:14:58.676Z,9.42
2022-11-24T15:16:02.479Z,9.43
2022-11-24T15:16:58.732Z,9.32
2022-11-24T15:17:58.773Z,9.32
2022-11-24T15:18:59.035Z,9.32
2022-11-24T15:20:01.292Z,9.21
2022-11-24T15:20:59.125Z,9.21
2022-11-24T15:22:01.028Z,9.15
2022-11-24T15:22:59.321Z,9.04
2022-11-24T15:23:59.759Z,9.04
2022-11-24T15:24:59.086Z,9.04
2022-11-24T15:25:59.165Z,9.09
2022-11-24T15:27:01.820Z,8.97
2022-11-24T15:27:59.412Z,8.93
2022-11-24T15:28:59.429Z,8.94
2022-11-24T15:29:59.312Z,8.96
2022-11-24T15:31:00.252Z,8.88
2022-11-24T15:31:59.450Z,8.93
2022-11-24T15:32:59.463Z,8.87
2022-11-24T15:34:04.157Z,8.86
2022-11-24T17:11:42.182Z,6.72
2022-11-24T17:12:42.196Z,6.73
2022-11-24T17:13:42.267Z,6.79
2022-11-24T17:14:52.705Z,6.71
2022-11-24T17:15:47.247Z,6.73
2022-11-24T17:16:42.528Z,6.72
2022-11-24T17:18:08.393Z,6.71
2022-11-24T17:18:50.877Z,6.79
2022-11-24T17:29:32.213Z,6.68
2022-11-24T17:30:21.195Z,6.62
2022-11-24T17:31:21.324Z,6.73
2022-11-24T17:32:21.263Z,6.68
2022-11-24T17:33:21.306Z,6.65
2022-11-24T17:34:21.347Z,6.71
2022-11-24T18:08:05.528Z,6.87
2022-11-24T18:09:05.546Z,6.90
2022-11-24T18:10:05.589Z,6.90
2022-11-24T18:11:05.618Z,6.84
2022-11-24T18:12:05.657Z,6.97
